sensor_id;sensor_type;location;lat;lon;timestamp;P1;durP1;ratioP1;P2;durP2;ratioP2
52458;SDS011;38372;52.902;6.024;2023-05-10T00:01:09;6.60;;;2.70;;
52458;SDS011;38372;52.902;6.024;2023-05-10T00:03:35;3.63;;;1.70;;
52458;SDS011;38372;52.902;6.024;2023-05-10T00:06:01;4.95;;;2.22;;
52458;SDS011;38372;52.902;6.024;2023-05-10T00:08:27;4.25;;;2.10;;
52458;SDS011;38372;52.902;6.024;2023-05-10T00:10:53;3.75;;;2.05;;
52458;SDS011;38372;52.902;6.024;2023-05-10T00:13:19;4.15;;;2.22;;
52458;SDS011;38372;52.902;6.024;2023-05-10T00:15:45;6.13;;;2.15;;
52458;SDS011;38372;52.902;6.024;2023-05-10T00:18:10;3.97;;;1.60;;
52458;SDS011;38372;52.902;6.024;2023-05-10T00:20:36;3.08;;;2.00;;
52458;SDS011;38372;52.902;6.024;2023-05-10T00:23:02;7.75;;;2.20;;
52458;SDS011;38372;52.902;6.024;2023-05-10T00:25:28;4.55;;;1.65;;
52458;SDS011;38372;52.902;6.024;2023-05-10T00:27:54;7.30;;;2.13;;
52458;SDS011;38372;52.902;6.024;2023-05-10T00:30:23;5.85;;;2.53;;
52458;SDS011;38372;52.902;6.024;2023-05-10T00:32:49;4.82;;;2.17;;
52458;SDS011;38372;52.902;6.024;2023-05-10T00:35:15;6.30;;;2.70;;
52458;SDS011;38372;52.902;6.024;2023-05-10T00:37:41;4.28;;;2.20;;
52458;SDS011;38372;52.902;6.024;2023-05-10T00:40:07;4.28;;;1.50;;
52458;SDS011;38372;52.902;6.024;2023-05-10T00:42:33;6.43;;;1.70;;
52458;SDS011;38372;52.902;6.024;2023-05-10T00:44:59;3.55;;;1.33;;
52458;SDS011;38372;52.902;6.024;2023-05-10T00:47:25;4.38;;;1.88;;
52458;SDS011;38372;52.902;6.024;2023-05-10T00:49:51;4.30;;;1.50;;
52458;SDS011;38372;52.902;6.024;2023-05-10T00:52:17;4.97;;;2.08;;
52458;SDS011;38372;52.902;6.024;2023-05-10T00:54:43;3.05;;;1.58;;
52458;SDS011;38372;52.902;6.024;2023-05-10T00:57:09;2.75;;;1.65;;
52458;SDS011;38372;52.902;6.024;2023-05-10T00:59:36;3.78;;;1.67;;
52458;SDS011;38372;52.902;6.024;2023-05-10T01:02:01;4.60;;;1.80;;
52458;SDS011;38372;52.902;6.024;2023-05-10T01:04:27;3.03;;;1.75;;
52458;SDS011;38372;52.902;6.024;2023-05-10T01:06:54;3.63;;;1.67;;
52458;SDS011;38372;52.902;6.024;2023-05-10T01:09:22;3.22;;;1.55;;
52458;SDS011;38372;52.902;6.024;2023-05-10T01:11:51;2.50;;;1.58;;
52458;SDS011;38372;52.902;6.024;2023-05-10T01:14:18;3.97;;;1.38;;
52458;SDS011;38372;52.902;6.024;2023-05-10T01:16:45;1.65;;;1.10;;
52458;SDS011;38372;52.902;6.024;2023-05-10T01:19:15;2.45;;;1.20;;
52458;SDS011;38372;52.902;6.024;2023-05-10T01:25:23;3.35;;;1.42;;
52458;SDS011;38372;52.902;6.024;2023-05-10T01:35:55;3.00;;;1.25;;
52458;SDS011;38372;52.902;6.024;2023-05-10T01:38:36;3.08;;;1.60;;
52458;SDS011;38372;52.902;6.024;2023-05-10T01:47:12;2.70;;;1.27;;
52458;SDS011;38372;52.902;6.024;2023-05-10T01:49:43;1.50;;;0.73;;
52458;SDS011;38372;52.902;6.024;2023-05-10T01:52:15;2.65;;;1.20;;
52458;SDS011;38372;52.902;6.024;2023-05-10T01:54:49;2.33;;;1.17;;
52458;SDS011;38372;52.902;6.024;2023-05-10T01:57:25;2.65;;;1.58;;
52458;SDS011;38372;52.902;6.024;2023-05-10T01:59:56;2.00;;;0.95;;
52458;SDS011;38372;52.902;6.024;2023-05-10T02:02:23;1.50;;;0.68;;
52458;SDS011;38372;52.902;6.024;2023-05-10T02:04:51;3.03;;;1.40;;
52458;SDS011;38372;52.902;6.024;2023-05-10T02:07:20;2.03;;;1.02;;
52458;SDS011;38372;52.902;6.024;2023-05-10T02:09:48;2.97;;;1.00;;
52458;SDS011;38372;52.902;6.024;2023-05-10T02:12:15;1.88;;;0.95;;
52458;SDS011;38372;52.902;6.024;2023-05-10T02:14:42;1.67;;;0.80;;
52458;SDS011;38372;52.902;6.024;2023-05-10T02:17:09;1.80;;;1.25;;
52458;SDS011;38372;52.902;6.024;2023-05-10T02:19:38;2.50;;;0.60;;
52458;SDS011;38372;52.902;6.024;2023-05-10T02:22:05;2.42;;;1.23;;
52458;SDS011;38372;52.902;6.024;2023-05-10T02:24:33;1.55;;;0.98;;
52458;SDS011;38372;52.902;6.024;2023-05-10T02:27:01;2.28;;;0.90;;
52458;SDS011;38372;52.902;6.024;2023-05-10T02:29:28;1.05;;;0.75;;
52458;SDS011;38372;52.902;6.024;2023-05-10T02:31:56;3.17;;;1.67;;
52458;SDS011;38372;52.902;6.024;2023-05-10T02:34:25;2.10;;;1.10;;
52458;SDS011;38372;52.902;6.024;2023-05-10T02:36:53;1.95;;;0.95;;
52458;SDS011;38372;52.902;6.024;2023-05-10T02:39:19;1.63;;;0.68;;
52458;SDS011;38372;52.902;6.024;2023-05-10T02:41:46;1.80;;;1.08;;
52458;SDS011;38372;52.902;6.024;2023-05-10T02:44:15;1.55;;;0.90;;
52458;SDS011;38372;52.902;6.024;2023-05-10T02:46:44;2.42;;;1.10;;
52458;SDS011;38372;52.902;6.024;2023-05-10T02:49:11;2.78;;;1.13;;
52458;SDS011;38372;52.902;6.024;2023-05-10T02:51:37;2.22;;;1.20;;
52458;SDS011;38372;52.902;6.024;2023-05-10T02:54:10;3.72;;;1.52;;
52458;SDS011;38372;52.902;6.024;2023-05-10T02:56:42;1.50;;;1.00;;
52458;SDS011;38372;52.902;6.024;2023-05-10T02:59:15;2.50;;;1.40;;
52458;SDS011;38372;52.902;6.024;2023-05-10T03:01:41;4.13;;;1.58;;
52458;SDS011;38372;52.902;6.024;2023-05-10T03:04:07;2.03;;;1.10;;
52458;SDS011;38372;52.902;6.024;2023-05-10T03:06:33;3.22;;;1.00;;
52458;SDS011;38372;52.902;6.024;2023-05-10T03:08:59;3.60;;;1.50;;
52458;SDS011;38372;52.902;6.024;2023-05-10T03:14:02;2.45;;;1.00;;
52458;SDS011;38372;52.902;6.024;2023-05-10T03:17:04;1.95;;;0.90;;
52458;SDS011;38372;52.902;6.024;2023-05-10T03:22:23;1.95;;;1.10;;
52458;SDS011;38372;52.902;6.024;2023-05-10T03:24:53;2.38;;;1.20;;
52458;SDS011;38372;52.902;6.024;2023-05-10T03:27:23;2.53;;;1.08;;
52458;SDS011;38372;52.902;6.024;2023-05-10T03:29:51;1.65;;;0.75;;
52458;SDS011;38372;52.902;6.024;2023-05-10T03:32:19;1.67;;;0.82;;
52458;SDS011;38372;52.902;6.024;2023-05-10T03:34:45;2.33;;;0.90;;
52458;SDS011;38372;52.902;6.024;2023-05-10T03:37:11;0.90;;;0.60;;
52458;SDS011;38372;52.902;6.024;2023-05-10T03:39:37;1.80;;;1.05;;
52458;SDS011;38372;52.902;6.024;2023-05-10T03:42:03;3.42;;;0.88;;
52458;SDS011;38372;52.902;6.024;2023-05-10T03:44:29;2.10;;;1.02;;
52458;SDS011;38372;52.902;6.024;2023-05-10T03:46:54;1.95;;;0.90;;
52458;SDS011;38372;52.902;6.024;2023-05-10T03:49:22;1.10;;;0.52;;
52458;SDS011;38372;52.902;6.024;2023-05-10T03:51:48;1.15;;;0.70;;
52458;SDS011;38372;52.902;6.024;2023-05-10T03:54:13;1.92;;;0.95;;
52458;SDS011;38372;52.902;6.024;2023-05-10T03:56:39;1.60;;;0.60;;
52458;SDS011;38372;52.902;6.024;2023-05-10T03:59:05;1.67;;;0.73;;
52458;SDS011;38372;52.902;6.024;2023-05-10T04:01:34;2.40;;;1.10;;
52458;SDS011;38372;52.902;6.024;2023-05-10T04:04:00;1.70;;;0.98;;
52458;SDS011;38372;52.902;6.024;2023-05-10T04:06:25;2.40;;;1.30;;
52458;SDS011;38372;52.902;6.024;2023-05-10T04:08:51;2.60;;;1.02;;
52458;SDS011;38372;52.902;6.024;2023-05-10T04:11:17;1.30;;;1.00;;
52458;SDS011;38372;52.902;6.024;2023-05-10T04:13:43;2.00;;;0.90;;
52458;SDS011;38372;52.902;6.024;2023-05-10T04:16:09;1.83;;;1.00;;
52458;SDS011;38372;52.902;6.024;2023-05-10T04:18:34;2.25;;;0.93;;
52458;SDS011;38372;52.902;6.024;2023-05-10T04:21:00;1.70;;;1.02;;
52458;SDS011;38372;52.902;6.024;2023-05-10T04:23:26;2.55;;;1.15;;
52458;SDS011;38372;52.902;6.024;2023-05-10T04:25:52;1.80;;;0.90;;
52458;SDS011;38372;52.902;6.024;2023-05-10T04:28:24;2.50;;;1.30;;
52458;SDS011;38372;52.902;6.024;2023-05-10T04:30:50;0.95;;;0.65;;
52458;SDS011;38372;52.902;6.024;2023-05-10T04:33:16;2.25;;;0.82;;
52458;SDS011;38372;52.902;6.024;2023-05-10T04:35:42;1.55;;;1.13;;
52458;SDS011;38372;52.902;6.024;2023-05-10T04:38:09;1.23;;;0.90;;
52458;SDS011;38372;52.902;6.024;2023-05-10T04:40:35;1.75;;;0.75;;
52458;SDS011;38372;52.902;6.024;2023-05-10T04:43:01;3.25;;;1.13;;
52458;SDS011;38372;52.902;6.024;2023-05-10T04:45:26;2.05;;;1.10;;
52458;SDS011;38372;52.902;6.024;2023-05-10T04:47:52;1.73;;;0.85;;
52458;SDS011;38372;52.902;6.024;2023-05-10T04:50:18;3.00;;;1.52;;
52458;SDS011;38372;52.902;6.024;2023-05-10T04:52:44;2.38;;;1.10;;
52458;SDS011;38372;52.902;6.024;2023-05-10T04:55:10;2.85;;;1.38;;
52458;SDS011;38372;52.902;6.024;2023-05-10T04:57:35;1.83;;;0.80;;
52458;SDS011;38372;52.902;6.024;2023-05-10T05:00:01;2.70;;;1.67;;
52458;SDS011;38372;52.902;6.024;2023-05-10T05:02:28;1.38;;;0.70;;
52458;SDS011;38372;52.902;6.024;2023-05-10T05:04:55;2.15;;;1.05;;
52458;SDS011;38372;52.902;6.024;2023-05-10T05:07:22;2.17;;;1.00;;
52458;SDS011;38372;52.902;6.024;2023-05-10T05:09:48;0.88;;;0.38;;
52458;SDS011;38372;52.902;6.024;2023-05-10T05:12:15;1.42;;;0.90;;
52458;SDS011;38372;52.902;6.024;2023-05-10T05:14:40;1.98;;;0.80;;
52458;SDS011;38372;52.902;6.024;2023-05-10T05:17:06;1.33;;;0.70;;
52458;SDS011;38372;52.902;6.024;2023-05-10T05:19:33;2.17;;;0.73;;
52458;SDS011;38372;52.902;6.024;2023-05-10T05:21:59;2.33;;;0.70;;
52458;SDS011;38372;52.902;6.024;2023-05-10T05:24:24;1.60;;;0.80;;
52458;SDS011;38372;52.902;6.024;2023-05-10T05:26:50;2.33;;;1.20;;
52458;SDS011;38372;52.902;6.024;2023-05-10T05:29:16;3.78;;;0.70;;
52458;SDS011;38372;52.902;6.024;2023-05-10T05:31:42;1.20;;;0.68;;
52458;SDS011;38372;52.902;6.024;2023-05-10T05:34:08;1.10;;;0.60;;
52458;SDS011;38372;52.902;6.024;2023-05-10T05:36:35;0.90;;;0.60;;
52458;SDS011;38372;52.902;6.024;2023-05-10T05:39:03;1.33;;;0.22;;
52458;SDS011;38372;52.902;6.024;2023-05-10T05:41:29;1.23;;;0.70;;
52458;SDS011;38372;52.902;6.024;2023-05-10T05:43:55;1.52;;;0.98;;
52458;SDS011;38372;52.902;6.024;2023-05-10T05:46:20;0.98;;;0.57;;
52458;SDS011;38372;52.902;6.024;2023-05-10T05:48:46;1.35;;;0.70;;
52458;SDS011;38372;52.902;6.024;2023-05-10T05:51:12;1.23;;;0.63;;
52458;SDS011;38372;52.902;6.024;2023-05-10T05:53:38;1.73;;;0.73;;
52458;SDS011;38372;52.902;6.024;2023-05-10T05:56:04;1.50;;;0.60;;
52458;SDS011;38372;52.902;6.024;2023-05-10T05:58:30;1.17;;;0.63;;
52458;SDS011;38372;52.902;6.024;2023-05-10T06:00:55;0.60;;;0.45;;
52458;SDS011;38372;52.902;6.024;2023-05-10T06:03:21;1.02;;;0.55;;
52458;SDS011;38372;52.902;6.024;2023-05-10T06:05:48;0.82;;;0.50;;
52458;SDS011;38372;52.902;6.024;2023-05-10T06:08:13;0.68;;;0.45;;
52458;SDS011;38372;52.902;6.024;2023-05-10T06:10:40;0.82;;;0.47;;
52458;SDS011;38372;52.902;6.024;2023-05-10T06:13:05;1.25;;;0.60;;
52458;SDS011;38372;52.902;6.024;2023-05-10T06:15:31;1.27;;;0.50;;
52458;SDS011;38372;52.902;6.024;2023-05-10T06:17:57;1.05;;;0.50;;
52458;SDS011;38372;52.902;6.024;2023-05-10T06:20:23;1.17;;;0.55;;
52458;SDS011;38372;52.902;6.024;2023-05-10T06:22:49;0.98;;;0.63;;
52458;SDS011;38372;52.902;6.024;2023-05-10T06:25:15;0.55;;;0.43;;
52458;SDS011;38372;52.902;6.024;2023-05-10T06:27:43;0.60;;;0.40;;
52458;SDS011;38372;52.902;6.024;2023-05-10T06:30:09;1.13;;;0.50;;
52458;SDS011;38372;52.902;6.024;2023-05-10T06:32:36;0.93;;;0.57;;
52458;SDS011;38372;52.902;6.024;2023-05-10T06:35:02;0.40;;;0.40;;
52458;SDS011;38372;52.902;6.024;2023-05-10T06:37:28;0.30;;;0.20;;
52458;SDS011;38372;52.902;6.024;2023-05-10T06:39:53;0.45;;;0.40;;
52458;SDS011;38372;52.902;6.024;2023-05-10T06:42:19;1.55;;;0.40;;
52458;SDS011;38372;52.902;6.024;2023-05-10T06:44:45;1.10;;;0.52;;
52458;SDS011;38372;52.902;6.024;2023-05-10T06:47:11;1.00;;;0.47;;
52458;SDS011;38372;52.902;6.024;2023-05-10T06:49:36;1.27;;;0.50;;
52458;SDS011;38372;52.902;6.024;2023-05-10T06:52:02;0.55;;;0.40;;
52458;SDS011;38372;52.902;6.024;2023-05-10T06:54:29;1.75;;;0.52;;
52458;SDS011;38372;52.902;6.024;2023-05-10T06:56:55;1.10;;;0.57;;
52458;SDS011;38372;52.902;6.024;2023-05-10T06:59:20;1.27;;;0.60;;
52458;SDS011;38372;52.902;6.024;2023-05-10T07:01:46;1.38;;;0.60;;
52458;SDS011;38372;52.902;6.024;2023-05-10T07:04:13;1.23;;;0.43;;
52458;SDS011;38372;52.902;6.024;2023-05-10T07:06:38;1.00;;;0.73;;
52458;SDS011;38372;52.902;6.024;2023-05-10T07:09:04;1.25;;;0.60;;
52458;SDS011;38372;52.902;6.024;2023-05-10T07:11:30;1.35;;;0.57;;
52458;SDS011;38372;52.902;6.024;2023-05-10T07:13:56;1.58;;;0.47;;
52458;SDS011;38372;52.902;6.024;2023-05-10T07:16:22;0.52;;;0.38;;
52458;SDS011;38372;52.902;6.024;2023-05-10T07:18:47;0.73;;;0.28;;
52458;SDS011;38372;52.902;6.024;2023-05-10T07:21:13;0.50;;;0.40;;
52458;SDS011;38372;52.902;6.024;2023-05-10T07:23:39;1.48;;;0.70;;
52458;SDS011;38372;52.902;6.024;2023-05-10T07:26:05;0.50;;;0.40;;
52458;SDS011;38372;52.902;6.024;2023-05-10T07:28:30;2.60;;;0.70;;
52458;SDS011;38372;52.902;6.024;2023-05-10T07:30:57;0.80;;;0.47;;
52458;SDS011;38372;52.902;6.024;2023-05-10T07:33:23;1.08;;;0.52;;
52458;SDS011;38372;52.902;6.024;2023-05-10T07:35:49;1.10;;;0.63;;
52458;SDS011;38372;52.902;6.024;2023-05-10T07:38:15;1.25;;;0.82;;
52458;SDS011;38372;52.902;6.024;2023-05-10T07:40:42;2.08;;;0.95;;
52458;SDS011;38372;52.902;6.024;2023-05-10T07:43:08;1.27;;;0.57;;
52458;SDS011;38372;52.902;6.024;2023-05-10T07:45:33;1.00;;;0.50;;
52458;SDS011;38372;52.902;6.024;2023-05-10T07:47:59;1.88;;;0.77;;
52458;SDS011;38372;52.902;6.024;2023-05-10T07:50:25;1.05;;;0.68;;
52458;SDS011;38372;52.902;6.024;2023-05-10T07:52:51;1.15;;;0.47;;
52458;SDS011;38372;52.902;6.024;2023-05-10T07:55:18;2.20;;;0.63;;
52458;SDS011;38372;52.902;6.024;2023-05-10T07:57:55;1.08;;;0.43;;
52458;SDS011;38372;52.902;6.024;2023-05-10T08:00:51;1.13;;;0.60;;
52458;SDS011;38372;52.902;6.024;2023-05-10T08:03:21;0.68;;;0.50;;
52458;SDS011;38372;52.902;6.024;2023-05-10T08:05:47;1.38;;;0.70;;
52458;SDS011;38372;52.902;6.024;2023-05-10T08:08:13;1.40;;;0.70;;
52458;SDS011;38372;52.902;6.024;2023-05-10T08:10:39;2.03;;;0.60;;
52458;SDS011;38372;52.902;6.024;2023-05-10T08:13:04;1.05;;;0.57;;
52458;SDS011;38372;52.902;6.024;2023-05-10T08:15:31;1.85;;;0.73;;
52458;SDS011;38372;52.902;6.024;2023-05-10T08:17:56;1.52;;;0.60;;
52458;SDS011;38372;52.902;6.024;2023-05-10T08:20:22;1.60;;;0.80;;
52458;SDS011;38372;52.902;6.024;2023-05-10T08:22:58;1.15;;;0.57;;
52458;SDS011;38372;52.902;6.024;2023-05-10T08:25:54;1.38;;;0.65;;
52458;SDS011;38372;52.902;6.024;2023-05-10T08:28:20;1.85;;;0.90;;
52458;SDS011;38372;52.902;6.024;2023-05-10T08:30:46;2.42;;;0.60;;
52458;SDS011;38372;52.902;6.024;2023-05-10T08:33:12;0.85;;;0.40;;
52458;SDS011;38372;52.902;6.024;2023-05-10T08:35:37;0.95;;;0.38;;
52458;SDS011;38372;52.902;6.024;2023-05-10T08:38:03;0.88;;;0.22;;
52458;SDS011;38372;52.902;6.024;2023-05-10T08:40:29;0.82;;;0.43;;
52458;SDS011;38372;52.902;6.024;2023-05-10T08:42:58;0.73;;;0.50;;
52458;SDS011;38372;52.902;6.024;2023-05-10T08:45:31;1.27;;;0.70;;
52458;SDS011;38372;52.902;6.024;2023-05-10T08:47:59;1.73;;;0.85;;
52458;SDS011;38372;52.902;6.024;2023-05-10T08:50:27;0.80;;;0.40;;
52458;SDS011;38372;52.902;6.024;2023-05-10T08:52:55;1.42;;;0.75;;
52458;SDS011;38372;52.902;6.024;2023-05-10T08:55:25;1.30;;;0.60;;
52458;SDS011;38372;52.902;6.024;2023-05-10T08:57:51;1.85;;;0.80;;
52458;SDS011;38372;52.902;6.024;2023-05-10T09:00:17;2.30;;;1.40;;
52458;SDS011;38372;52.902;6.024;2023-05-10T09:02:44;2.97;;;1.33;;
52458;SDS011;38372;52.902;6.024;2023-05-10T09:05:11;2.15;;;0.98;;
52458;SDS011;38372;52.902;6.024;2023-05-10T09:07:37;2.47;;;0.77;;
52458;SDS011;38372;52.902;6.024;2023-05-10T09:10:04;1.17;;;0.63;;
52458;SDS011;38372;52.902;6.024;2023-05-10T09:12:30;2.60;;;0.70;;
52458;SDS011;38372;52.902;6.024;2023-05-10T09:14:57;1.52;;;0.95;;
52458;SDS011;38372;52.902;6.024;2023-05-10T09:17:25;1.88;;;0.90;;
52458;SDS011;38372;52.902;6.024;2023-05-10T09:20:01;2.40;;;1.33;;
52458;SDS011;38372;52.902;6.024;2023-05-10T09:22:32;2.85;;;1.02;;
52458;SDS011;38372;52.902;6.024;2023-05-10T09:27:36;2.03;;;0.95;;
52458;SDS011;38372;52.902;6.024;2023-05-10T09:30:03;1.67;;;0.80;;
52458;SDS011;38372;52.902;6.024;2023-05-10T09:32:39;4.03;;;1.17;;
52458;SDS011;38372;52.902;6.024;2023-05-10T09:35:10;2.75;;;1.10;;
52458;SDS011;38372;52.902;6.024;2023-05-10T09:37:38;2.03;;;0.93;;
52458;SDS011;38372;52.902;6.024;2023-05-10T09:40:10;1.50;;;0.70;;
52458;SDS011;38372;52.902;6.024;2023-05-10T09:42:38;0.93;;;0.52;;
52458;SDS011;38372;52.902;6.024;2023-05-10T09:45:05;1.90;;;0.90;;
52458;SDS011;38372;52.902;6.024;2023-05-10T09:47:32;3.63;;;0.90;;
52458;SDS011;38372;52.902;6.024;2023-05-10T09:50:04;2.17;;;0.90;;
52458;SDS011;38372;52.902;6.024;2023-05-10T09:55:11;0.88;;;0.50;;
52458;SDS011;38372;52.902;6.024;2023-05-10T09:57:37;1.65;;;0.82;;
52458;SDS011;38372;52.902;6.024;2023-05-10T10:00:03;1.73;;;0.70;;
52458;SDS011;38372;52.902;6.024;2023-05-10T10:02:30;1.67;;;0.80;;
52458;SDS011;38372;52.902;6.024;2023-05-10T10:04:57;2.67;;;1.00;;
52458;SDS011;38372;52.902;6.024;2023-05-10T10:07:23;1.33;;;0.88;;
52458;SDS011;38372;52.902;6.024;2023-05-10T10:09:52;1.58;;;0.70;;
52458;SDS011;38372;52.902;6.024;2023-05-10T10:12:18;2.92;;;0.70;;
52458;SDS011;38372;52.902;6.024;2023-05-10T10:14:46;1.65;;;0.90;;
52458;SDS011;38372;52.902;6.024;2023-05-10T10:17:13;1.50;;;0.70;;
52458;SDS011;38372;52.902;6.024;2023-05-10T10:19:39;1.58;;;1.00;;
52458;SDS011;38372;52.902;6.024;2023-05-10T10:22:06;2.22;;;0.90;;
52458;SDS011;38372;52.902;6.024;2023-05-10T10:24:32;2.85;;;1.15;;
52458;SDS011;38372;52.902;6.024;2023-05-10T10:27:04;5.03;;;1.63;;
52458;SDS011;38372;52.902;6.024;2023-05-10T10:29:52;1.48;;;0.70;;
52458;SDS011;38372;52.902;6.024;2023-05-10T10:32:42;3.63;;;0.73;;
52458;SDS011;38372;52.902;6.024;2023-05-10T10:35:12;1.90;;;0.90;;
52458;SDS011;38372;52.902;6.024;2023-05-10T10:37:43;2.67;;;1.27;;
52458;SDS011;38372;52.902;6.024;2023-05-10T10:42:55;2.10;;;1.08;;
52458;SDS011;38372;52.902;6.024;2023-05-10T10:45:22;4.30;;;1.65;;
52458;SDS011;38372;52.902;6.024;2023-05-10T10:50:47;2.58;;;1.23;;
52458;SDS011;38372;52.902;6.024;2023-05-10T10:53:21;3.28;;;1.65;;
52458;SDS011;38372;52.902;6.024;2023-05-10T10:55:46;6.13;;;2.05;;
52458;SDS011;38372;52.902;6.024;2023-05-10T10:58:34;6.10;;;1.70;;
52458;SDS011;38372;52.902;6.024;2023-05-10T11:06:29;5.57;;;2.17;;
52458;SDS011;38372;52.902;6.024;2023-05-10T11:08:56;3.42;;;1.77;;
52458;SDS011;38372;52.902;6.024;2023-05-10T11:11:23;4.15;;;2.28;;
52458;SDS011;38372;52.902;6.024;2023-05-10T11:13:49;6.22;;;2.25;;
52458;SDS011;38372;52.902;6.024;2023-05-10T11:16:16;6.28;;;2.95;;
52458;SDS011;38372;52.902;6.024;2023-05-10T11:19:04;5.72;;;2.72;;
52458;SDS011;38372;52.902;6.024;2023-05-10T11:21:30;7.00;;;2.22;;
52458;SDS011;38372;52.902;6.024;2023-05-10T11:23:57;4.55;;;2.28;;
52458;SDS011;38372;52.902;6.024;2023-05-10T11:26:24;4.88;;;1.75;;
52458;SDS011;38372;52.902;6.024;2023-05-10T11:29:00;4.28;;;1.67;;
52458;SDS011;38372;52.902;6.024;2023-05-10T11:31:27;3.35;;;1.52;;
52458;SDS011;38372;52.902;6.024;2023-05-10T11:33:57;4.30;;;1.90;;
52458;SDS011;38372;52.902;6.024;2023-05-10T11:36:25;3.75;;;1.95;;
52458;SDS011;38372;52.902;6.024;2023-05-10T11:38:52;4.35;;;1.73;;
52458;SDS011;38372;52.902;6.024;2023-05-10T11:41:19;3.90;;;2.22;;
52458;SDS011;38372;52.902;6.024;2023-05-10T11:43:47;6.05;;;2.25;;
52458;SDS011;38372;52.902;6.024;2023-05-10T11:46:14;4.03;;;2.17;;
52458;SDS011;38372;52.902;6.024;2023-05-10T11:48:42;5.30;;;2.33;;
52458;SDS011;38372;52.902;6.024;2023-05-10T11:51:08;3.10;;;1.67;;
52458;SDS011;38372;52.902;6.024;2023-05-10T11:53:35;5.30;;;2.53;;
52458;SDS011;38372;52.902;6.024;2023-05-10T11:56:05;3.90;;;1.92;;
52458;SDS011;38372;52.902;6.024;2023-05-10T11:58:32;3.78;;;2.08;;
52458;SDS011;38372;52.902;6.024;2023-05-10T12:00:59;3.65;;;1.65;;
52458;SDS011;38372;52.902;6.024;2023-05-10T12:03:25;5.28;;;2.63;;
52458;SDS011;38372;52.902;6.024;2023-05-10T12:05:52;4.25;;;1.77;;
52458;SDS011;38372;52.902;6.024;2023-05-10T12:08:22;3.70;;;1.50;;
52458;SDS011;38372;52.902;6.024;2023-05-10T12:10:49;3.42;;;1.40;;
52458;SDS011;38372;52.902;6.024;2023-05-10T12:13:16;4.90;;;1.77;;
52458;SDS011;38372;52.902;6.024;2023-05-10T12:15:43;4.25;;;2.03;;
52458;SDS011;38372;52.902;6.024;2023-05-10T12:18:09;4.03;;;1.52;;
52458;SDS011;38372;52.902;6.024;2023-05-10T12:20:36;3.97;;;1.85;;
52458;SDS011;38372;52.902;6.024;2023-05-10T12:23:02;4.20;;;2.03;;
52458;SDS011;38372;52.902;6.024;2023-05-10T12:25:32;5.43;;;1.95;;
52458;SDS011;38372;52.902;6.024;2023-05-10T12:28:00;3.25;;;1.63;;
52458;SDS011;38372;52.902;6.024;2023-05-10T12:30:29;4.18;;;2.05;;
52458;SDS011;38372;52.902;6.024;2023-05-10T12:33:12;4.00;;;2.20;;
52458;SDS011;38372;52.902;6.024;2023-05-10T12:35:45;6.50;;;2.25;;
52458;SDS011;38372;52.902;6.024;2023-05-10T12:41:00;3.33;;;1.83;;
52458;SDS011;38372;52.902;6.024;2023-05-10T12:45:54;3.97;;;1.85;;
52458;SDS011;38372;52.902;6.024;2023-05-10T12:48:20;6.30;;;2.75;;
52458;SDS011;38372;52.902;6.024;2023-05-10T12:50:46;4.30;;;1.98;;
52458;SDS011;38372;52.902;6.024;2023-05-10T12:53:15;4.75;;;2.75;;
52458;SDS011;38372;52.902;6.024;2023-05-10T12:55:41;3.92;;;1.80;;
52458;SDS011;38372;52.902;6.024;2023-05-10T12:58:10;6.18;;;2.60;;
52458;SDS011;38372;52.902;6.024;2023-05-10T13:00:35;4.32;;;2.30;;
52458;SDS011;38372;52.902;6.024;2023-05-10T13:03:03;6.38;;;2.72;;
52458;SDS011;38372;52.902;6.024;2023-05-10T13:05:31;7.78;;;2.63;;
52458;SDS011;38372;52.902;6.024;2023-05-10T13:07:58;4.85;;;2.65;;
52458;SDS011;38372;52.902;6.024;2023-05-10T13:10:24;3.42;;;1.67;;
52458;SDS011;38372;52.902;6.024;2023-05-10T13:12:50;5.88;;;2.20;;
52458;SDS011;38372;52.902;6.024;2023-05-10T13:15:16;5.22;;;2.38;;
52458;SDS011;38372;52.902;6.024;2023-05-10T13:17:42;5.88;;;2.30;;
52458;SDS011;38372;52.902;6.024;2023-05-10T13:20:08;3.00;;;2.20;;
52458;SDS011;38372;52.902;6.024;2023-05-10T13:22:34;4.30;;;1.83;;
52458;SDS011;38372;52.902;6.024;2023-05-10T13:25:01;5.20;;;2.25;;
52458;SDS011;38372;52.902;6.024;2023-05-10T13:27:28;3.22;;;1.60;;
52458;SDS011;38372;52.902;6.024;2023-05-10T13:29:54;5.45;;;2.92;;
52458;SDS011;38372;52.902;6.024;2023-05-10T13:32:20;4.35;;;1.98;;
52458;SDS011;38372;52.902;6.024;2023-05-10T13:34:46;3.53;;;1.58;;
52458;SDS011;38372;52.902;6.024;2023-05-10T13:37:12;4.05;;;1.58;;
52458;SDS011;38372;52.902;6.024;2023-05-10T13:39:38;3.53;;;1.65;;
52458;SDS011;38372;52.902;6.024;2023-05-10T13:42:05;3.20;;;1.30;;
52458;SDS011;38372;52.902;6.024;2023-05-10T13:44:30;3.92;;;1.40;;
52458;SDS011;38372;52.902;6.024;2023-05-10T13:46:58;2.13;;;1.08;;
52458;SDS011;38372;52.902;6.024;2023-05-10T13:49:24;2.00;;;0.95;;
52458;SDS011;38372;52.902;6.024;2023-05-10T13:51:50;1.58;;;0.73;;
52458;SDS011;38372;52.902;6.024;2023-05-10T13:54:17;1.60;;;0.93;;
52458;SDS011;38372;52.902;6.024;2023-05-10T13:56:44;3.03;;;1.10;;
52458;SDS011;38372;52.902;6.024;2023-05-10T13:59:12;1.45;;;0.80;;
52458;SDS011;38372;52.902;6.024;2023-05-10T14:01:39;1.63;;;0.60;;
52458;SDS011;38372;52.902;6.024;2023-05-10T14:04:08;1.67;;;0.90;;
52458;SDS011;38372;52.902;6.024;2023-05-10T14:06:38;1.95;;;0.75;;
52458;SDS011;38372;52.902;6.024;2023-05-10T14:09:04;1.30;;;0.52;;
52458;SDS011;38372;52.902;6.024;2023-05-10T14:11:29;1.00;;;0.43;;
52458;SDS011;38372;52.902;6.024;2023-05-10T14:13:55;1.60;;;0.73;;
52458;SDS011;38372;52.902;6.024;2023-05-10T14:16:21;2.40;;;0.90;;
52458;SDS011;38372;52.902;6.024;2023-05-10T14:18:47;3.00;;;1.00;;
52458;SDS011;38372;52.902;6.024;2023-05-10T14:21:13;2.08;;;0.88;;
52458;SDS011;38372;52.902;6.024;2023-05-10T14:23:38;2.20;;;1.10;;
52458;SDS011;38372;52.902;6.024;2023-05-10T14:26:04;2.25;;;1.00;;
52458;SDS011;38372;52.902;6.024;2023-05-10T14:28:31;1.27;;;1.00;;
52458;SDS011;38372;52.902;6.024;2023-05-10T14:30:57;1.10;;;0.57;;
52458;SDS011;38372;52.902;6.024;2023-05-10T14:33:24;1.02;;;0.50;;
52458;SDS011;38372;52.902;6.024;2023-05-10T14:35:50;2.00;;;0.95;;
52458;SDS011;38372;52.902;6.024;2023-05-10T14:38:16;2.10;;;1.17;;
52458;SDS011;38372;52.902;6.024;2023-05-10T14:40:41;2.38;;;0.93;;
52458;SDS011;38372;52.902;6.024;2023-05-10T14:43:08;1.95;;;1.17;;
52458;SDS011;38372;52.902;6.024;2023-05-10T14:45:34;1.38;;;0.75;;
52458;SDS011;38372;52.902;6.024;2023-05-10T14:48:00;2.20;;;0.73;;
52458;SDS011;38372;52.902;6.024;2023-05-10T14:50:29;3.58;;;1.15;;
52458;SDS011;38372;52.902;6.024;2023-05-10T14:52:56;2.53;;;1.17;;
52458;SDS011;38372;52.902;6.024;2023-05-10T14:55:23;1.42;;;0.88;;
52458;SDS011;38372;52.902;6.024;2023-05-10T14:57:49;4.00;;;1.38;;
52458;SDS011;38372;52.902;6.024;2023-05-10T15:00:15;2.10;;;1.08;;
52458;SDS011;38372;52.902;6.024;2023-05-10T15:02:42;2.05;;;1.10;;
52458;SDS011;38372;52.902;6.024;2023-05-10T15:05:08;3.00;;;1.40;;
52458;SDS011;38372;52.902;6.024;2023-05-10T15:07:34;2.47;;;1.30;;
52458;SDS011;38372;52.902;6.024;2023-05-10T15:09:59;3.50;;;1.60;;
52458;SDS011;38372;52.902;6.024;2023-05-10T15:12:25;3.53;;;1.77;;
52458;SDS011;38372;52.902;6.024;2023-05-10T15:14:51;2.35;;;1.08;;
52458;SDS011;38372;52.902;6.024;2023-05-10T15:17:17;4.45;;;1.38;;
52458;SDS011;38372;52.902;6.024;2023-05-10T15:19:42;2.67;;;1.38;;
52458;SDS011;38372;52.902;6.024;2023-05-10T15:22:08;3.67;;;1.70;;
52458;SDS011;38372;52.902;6.024;2023-05-10T15:24:34;2.95;;;1.35;;
52458;SDS011;38372;52.902;6.024;2023-05-10T15:27:00;2.97;;;1.63;;
52458;SDS011;38372;52.902;6.024;2023-05-10T15:29:26;4.20;;;1.73;;
52458;SDS011;38372;52.902;6.024;2023-05-10T15:31:52;3.60;;;1.40;;
52458;SDS011;38372;52.902;6.024;2023-05-10T15:34:17;4.18;;;1.38;;